Tiempo atmosférico en la estación meteorológica de Bailén, Jaén (345 m.)



Fecha
DESCASC
Temp. máxima en grados centígrados (hora)
DESCASC
Temp. mínima en grados centígrados (hora)
DESCASC
Temp. media en grados centígrados
DESCASC
Racha de viento máxima en m/sg (hora)
DESCASC
Velocidad máxima media en intervalos de 10 minutos(hora)
DESCASC
Precipitaciones diarias en mm
DESCASC
Precipitaciones de 00:00 a 06:00 en mm
DESCASC
Precipitaciones de 06:00 a 12:00 en mm
DESCASC
Precipitaciones de 12:00 a 18:00 en mm
DESCASC
Precipitaciones de 18:00 a 24:00 en mm
DESCASC
17-09-2020 30.7 (16:50) 21.8 (08:10) 26.3 8.89 (18:40) 2.5 (18:40) 0 0 0 0 0
16-09-2020 32.6 (15:40) 19.1 (08:10) 25.8 6.94 (23:40) 2.5 (20:40) 0 0 0 0 0
15-09-2020 31.9 (17:40) 20.1 (08:20) 26 5 (17:20) 2.22 (17:10) 1.4 0 1.4 0 0
14-09-2020 32.2 (16:00) 22 (00:00) 27.1 5.28 (23:20) 3.06 (07:50) 0 0 0 0 0
13-09-2020 35.1 (17:00) 22.6 (00:00) 28.8 8.33 (12:10) 3.61 (17:00) 0 0 0 0 0
12-09-2020 37.1 (18:20) 19.4 (00:00) 28.2 5.28 (12:30) 2.5 (12:20) 0 0 0 0 0
11-09-2020 34.5 (17:20) 18.3 (00:00) 26.4 3.61 (16:00) 1.67 (17:10) 0 0 0 0 0
10-09-2020 33.7 (17:40) 17.9 (00:00) 25.8 3.61 (16:10) 1.67 (02:40) 0 0 0 0 0
09-09-2020 32.3 (18:10) 19.2 (00:00) 25.8 4.17 (22:50) 2.5 (23:00) 0 0 0 0 0
08-09-2020 31.9 (18:10) 20.3 (00:00) 26.1 6.39 (06:30) 3.61 (06:30) 0 0 0 0 0
07-09-2020 34.4 (17:00) 20.8 (08:10) 27.6 8.89 (18:40) 4.17 (19:00) 0 0 0 0 0
06-09-2020 36 (18:00) 19.6 (00:00) 27.8 3.61 (16:20) 1.67 (22:10) 0 0 0 0 0
05-09-2020 36.2 (18:00) 18.5 (00:00) 27.4 3.61 (18:10) 1.94 (16:50) 0 0 0 0 0
04-09-2020 35.9 (18:10) 21 (00:00) 28.5 6.39 (11:50) 3.33 (12:40) 0 0 0 0 0
03-09-2020 35.7 (17:50) 17.9 (00:00) 26.8 6.39 (15:40) 3.06 (15:40) 0 0 0 0 0
02-09-2020 33.9 (17:50) 17.5 (00:00) 25.7 3.89 (19:30) 1.67 (14:50) 0 0 0 0 0
01-09-2020 29.3 (18:20) 16.2 (00:00) 22.8 4.44 (15:00) 1.39 (15:40) 0 0 0 0 0
31-08-2020 33.3 (18:10) 18 (00:00) 25.6 6.11 (04:30) 3.61 (04:30) 0 0 0 0 0
30-08-2020 31.1 (17:50) 16.9 (00:00) 24 7.78 (19:00) 3.33 (04:10) 0 0 0 0 0
29-08-2020 29.2 (18:00) 17.6 (00:00) 23.4 8.06 (19:10) 3.33 (00:40) 0 0 0 0 0
28-08-2020 34.8 (15:30) 23.6 (00:00) 29.2 9.44 (19:30) 3.89 (19:30) 0 0 0 0 0
27-08-2020 39 (17:40) 22 (00:00) 30.5 6.11 (19:50) 2.5 (19:10) 0 0 0 0 0
26-08-2020 38.9 (18:10) 22.8 (00:00) 30.9 3.89 (15:30) 1.39 (15:30) 0 0 0 0 0
25-08-2020 38.2 (18:10) 22.9 (00:00) 30.6 5.28 (16:10) 1.94 (16:10) 0 0 0 0 0
24-08-2020 37.9 (17:20) 19.5 (00:00) 28.7 4.44 (15:00) 1.39 (12:50) 0 0 0 0 0
23-08-2020 38.9 (17:50) 21.7 (00:00) 30.3 6.94 (16:20) 2.5 (16:20) 0 0 0 0 0
22-08-2020 37.4 (18:00) 20.5 (00:00) 29 5 (18:30) 1.39 (16:20) 0 0 0 0 0
21-08-2020 37.2 (18:10) 19 (00:00) 28.1 6.39 (18:10) 2.5 (16:30) 0 0 0 0 0
20-08-2020 37.8 (17:50) 20.6 (00:00) 29.2 7.5 (19:10) 2.78 (19:40) 0 0 0 0 0
19-08-2020 38 (17:40) 21.5 (00:00) 29.8 6.39 (18:30) 2.78 (17:50) 0 0 0 0 0

Gráficas

Temp. máximas Temp. mínimas Temp. medias Precipitaciones Rachas de viento máximas Velocidades máximas media en intervalos de 10 minutos

Datos horarios

Fecha y hora oficial Temperatura (ºC) Velocidad del viento (km/h) Dirección del viento Racha (km/h) Dirección de racha Precipitación (mm) Presión (hPa) Tendencia (hPa) Humedad (%)
2020-09-17 23:00:00 26.2 6 Sur 19 Sur 0 -- -- 37
2020-09-17 22:00:00 25.2 5 Sur 13 Sur 0 -- -- 42
2020-09-17 21:00:00 24.1 3 Este 15 Nordeste 0 -- -- 63
2020-09-17 20:00:00 24.7 8 Nordeste 15 Nordeste 0 -- -- 61
2020-09-17 19:00:00 25.3 4 Norte 32 Oeste 0 -- -- 60
2020-09-17 18:00:00 30 4 Sur 12 Sur 0 -- -- 39
2020-09-17 17:00:00 30.5 3 Sudoeste 13 Sur 0 -- -- 34
2020-09-17 16:00:00 29.9 3 Sudoeste 15 Sudoeste 0 -- -- 35
2020-09-17 15:00:00 29.2 5 Oeste 14 Oeste 0 -- -- 39
2020-09-17 14:00:00 28.5 4 Sudoeste 15 Oeste 0 -- -- 41
2020-09-17 13:00:00 26.6 4 Nordeste 14 Nordeste 0 -- -- 49
2020-09-17 12:00:00 24.4 7 Nordeste 13 Nordeste 0 -- -- 55
2020-09-17 11:00:00 23.5 4 Este 9 Este 0 -- -- 61
2020-09-17 10:00:00 22.5 3 Este 7 Este 0 -- -- 67
2020-09-17 09:00:00 22.1 0 Calma 5 Norte 0 -- -- 68
2020-09-17 08:00:00 21.9 0 Calma 4 Oeste 0 -- -- 65
2020-09-17 07:00:00 22 0 Calma 7 Noroeste 0 -- -- 67
2020-09-17 06:00:00 22.6 0 Calma 12 Nordeste 0 -- -- 65
2020-09-17 05:00:00 23 6 Nordeste 14 Nordeste 0 -- -- 59
2020-09-17 04:00:00 22.9 6 Nordeste 14 Nordeste 0 -- -- 63
2020-09-17 03:00:00 22.6 7 Nordeste 14 Nordeste 0 -- -- 65
2020-09-17 02:00:00 22.4 2 Este 12 Este 0 -- -- 68
2020-09-17 01:00:00 24.1 0 Calma 20 Oeste -- -- -- 58
2020-09-17 00:00:00 25.7 5 Sudoeste 25 Oeste 0 -- -- 45
2020-09-16 23:00:00 27.3 3 Sudoeste 18 Oeste 0 -- -- 39
2020-09-16 22:00:00 27.3 2 Sudoeste 9 Oeste 0 -- -- 37
2020-09-16 21:00:00 28.9 4 Oeste 15 Oeste 0 -- -- 33
2020-09-16 20:00:00 29.7 5 Sudoeste 15 Sudoeste 0 -- -- 34
2020-09-16 19:00:00 30.6 4 Sudoeste 13 Oeste 0 -- -- 33
2020-09-16 18:00:00 31.6 4 Sudoeste 19 Oeste 0 -- -- 33
2020-09-16 17:00:00 31.7 4 Sudoeste 15 Sudoeste 0 -- -- 33
2020-09-16 16:00:00 32.5 4 Sudeste 11 Este 0 -- -- 30
2020-09-16 15:00:00 31.7 4 Oeste 14 Nordeste 0 -- -- 31
2020-09-16 14:00:00 30.7 5 Este 16 Este 0 -- -- 36
2020-09-16 13:00:00 29.1 4 Norte 14 Este 0 -- -- 41
2020-09-16 12:00:00 27.1 4 Nordeste 10 Nordeste 0 -- -- 45
2020-09-16 11:00:00 23.3 3 Sudeste 8 Este 0 -- -- 55
2020-09-16 10:00:00 20.9 2 Sudeste 7 Nordeste 0 -- -- 61
2020-09-16 09:00:00 19.3 0 Calma 4 Sudeste 0 -- -- 68
2020-09-16 08:00:00 19.2 0 Calma 3 Sudeste 0 -- -- 65
2020-09-16 07:00:00 19.9 0 Calma 3 Sudoeste 0 -- -- 62
2020-09-16 06:00:00 20.5 0 Calma 5 Oeste 0 -- -- 61
2020-09-16 05:00:00 21.2 0 Calma 8 Oeste 0 -- -- 58
2020-09-16 04:00:00 21.5 0 Calma 4 Oeste 0 -- -- 59
2020-09-16 03:00:00 22.2 0 Calma 3 Oeste 0 -- -- 56
2020-09-16 02:00:00 22.9 0 Calma 2 Noroeste 0 -- -- 54
2020-09-16 01:00:00 23.5 0 Calma 3 Sudeste 0 -- -- 52
2020-09-16 00:00:00 24.5 0 Calma 9 Oeste 0 -- -- 48
2020-09-15 23:00:00 25.2 3 Oeste 8 Oeste 0 -- -- 47
2020-09-15 22:00:00 26.3 2 Oeste 10 Sudoeste 0 -- -- 45
2020-09-15 21:00:00 27.8 5 Oeste 10 Oeste 0 -- -- 42
2020-09-15 20:00:00 29.3 2 Sudoeste 16 Oeste 0 -- -- 39
2020-09-15 19:00:00 30.5 6 Oeste 14 Oeste 0 -- -- 36
2020-09-15 18:00:00 31.8 5 Sudoeste 18 Noroeste 0 -- -- 34
2020-09-15 17:00:00 31.6 4 Oeste 17 Oeste 0 -- -- 36
2020-09-15 16:00:00 31.3 4 Norte 13 Noroeste 0 -- -- 35
2020-09-15 15:00:00 30.9 4 Noroeste 13 Sudeste 0 -- -- 35
2020-09-15 14:00:00 28.7 5 Nordeste 10 Este 0 -- -- 45
2020-09-15 13:00:00 27 3 Nordeste 9 Este 0 -- -- 53
2020-09-15 12:00:00 25.4 2 Sur 10 Este 0 -- -- 60
2020-09-15 11:00:00 22.3 0 Calma 5 Norte 0 -- -- 77
2020-09-15 10:00:00 20.7 0 Calma 6 Oeste 0 -- -- 85
2020-09-15 09:00:00 20.1 0 Calma 5 Noroeste 0 -- -- 87
2020-09-15 08:00:00 20.2 0 Calma 4 Oeste 0 -- -- 86
2020-09-15 07:00:00 20.9 0 Calma 3 Oeste 1.4 -- -- 84
2020-09-15 06:00:00 22 0 Calma 8 Sudoeste 0 -- -- 75
2020-09-15 05:00:00 22.5 0 Calma 10 Sudoeste 0 -- -- 73
2020-09-15 04:00:00 22.8 2 Sudoeste 6 Sudoeste 0 -- -- 71
2020-09-15 03:00:00 23.5 2 Sudoeste 10 Sudoeste 0 -- -- 65
2020-09-15 02:00:00 24.2 2 Sudoeste 14 Sudoeste 0 -- -- 59
2020-09-15 01:00:00 24.9 3 Sudoeste 10 Sudoeste 0 -- -- 54
2020-09-15 00:00:00 26 3 Sudoeste 19 Oeste 0 -- -- 45
2020-09-14 23:00:00 26.6 5 Oeste 13 Oeste 0 -- -- 38
2020-09-14 22:00:00 27 3 Oeste 8 Sudoeste 0 -- -- 38
2020-09-14 21:00:00 28.1 2 Sudoeste 10 Oeste 0 -- -- 35
2020-09-14 20:00:00 29.8 5 Oeste 14 Oeste 0 -- -- 30
2020-09-14 19:00:00 30.3 3 Oeste 10 Oeste 0 -- -- 32
2020-09-14 18:00:00 30.3 3 Oeste 10 Oeste 0 -- -- 30
2020-09-14 17:00:00 31.2 3 Sudoeste 12 Oeste 0 -- -- 28
2020-09-14 16:00:00 32.2 3 Oeste 12 Oeste -- -- -- 24
2020-09-14 15:00:00 31.4 2 Sudoeste 8 Sudoeste 0 -- -- 26
2020-09-14 14:00:00 30.2 2 Sudoeste 6 Sudeste 0 -- -- 29
2020-09-14 13:00:00 29.8 2 Sudeste 11 Sudeste 0 -- -- 30
2020-09-14 12:00:00 28 2 Sur 9 Este 0 -- -- 32
2020-09-14 11:00:00 25.1 3 Nordeste 8 Nordeste 0 -- -- 42
2020-09-14 10:00:00 24 4 Norte 12 Nordeste 0 -- -- 45
2020-09-14 09:00:00 22.6 3 Este 15 Nordeste 0 -- -- 48
2020-09-14 08:00:00 22.1 10 Nordeste 18 Nordeste 0 -- -- 48
2020-09-14 07:00:00 22.4 9 Nordeste 15 Nordeste 0 -- -- 47
2020-09-14 06:00:00 22.6 4 Nordeste 12 Nordeste 0 -- -- 45
2020-09-14 05:00:00 23.3 7 Nordeste 14 Nordeste 0 -- -- 43
2020-09-14 04:00:00 23.7 5 Nordeste 12 Norte 0 -- -- 41
2020-09-14 03:00:00 23.7 4 Nordeste 9 Nordeste 0 -- -- 44
2020-09-14 02:00:00 24.4 0 Calma 4 Nordeste 0 -- -- 42
2020-09-14 01:00:00 25.7 0 Calma 3 Sudeste 0 -- -- 40
2020-09-14 00:00:00 27.4 2 Sudoeste 13 Sudeste 0 -- -- 36
2020-09-13 23:00:00 27.7 2 Sur 13 Este 0 -- -- 38
2020-09-13 22:00:00 28.7 7 Sudeste 17 Sudeste 0 -- -- 33
2020-09-13 21:00:00 29.8 3 Sudeste 12 Sudeste 0 -- -- 28
2020-09-13 20:00:00 32.4 8 Sudeste 16 Sudeste 0 -- -- 24
2020-09-13 19:00:00 33.5 6 Sudeste 18 Este 0 -- -- 21
2020-09-13 18:00:00 34.8 8 Sudeste 23 Sudeste 0 -- -- 20
2020-09-13 17:00:00 35.1 13 Este 24 Este 0 -- -- 20
2020-09-13 16:00:00 33.4 6 Sudeste 22 Sudeste 0 -- -- 22
2020-09-13 15:00:00 34.1 8 Sudeste 23 Este 0 -- -- 21
2020-09-13 14:00:00 33.4 10 Este 26 Este 0 -- -- 23
2020-09-13 13:00:00 32.7 11 Este 30 Este 0 -- -- 23
2020-09-13 12:00:00 31.1 12 Este 28 Este 0 -- -- 24
2020-09-13 11:00:00 27.3 8 Este 26 Este 0 -- -- 32
2020-09-13 10:00:00 25 8 Nordeste 19 Nordeste 0 -- -- 38
2020-09-13 09:00:00 23.3 9 Nordeste 17 Nordeste 0 -- -- 40
2020-09-13 08:00:00 22.7 6 Nordeste 17 Nordeste 0 -- -- 40
2020-09-13 07:00:00 23 10 Nordeste 16 Nordeste -- -- -- 39
2020-09-13 06:00:00 23 5 Norte 8 Norte 0 -- -- 37
2020-09-13 05:00:00 23.6 3 Nordeste 9 Este 0 -- -- 36
2020-09-13 04:00:00 23.9 0 Calma 9 Este 0 -- -- 36
2020-09-13 03:00:00 24.3 5 Nordeste 10 Nordeste 0 -- -- 34
2020-09-13 02:00:00 25.2 0 Calma 9 Este 0 -- -- 34
2020-09-13 01:00:00 27 0 Calma 10 Oeste 0 -- -- 30
2020-09-13 00:00:00 28.1 3 Oeste 14 Sudoeste 0 -- -- 28
2020-09-12 23:00:00 28.2 4 Sudoeste 12 Sudoeste 0 -- -- 28
2020-09-12 22:00:00 28.8 0 Calma 4 Sudeste 0 -- -- 25
2020-09-12 21:00:00 30.7 0 Calma 9 Sudeste 0 -- -- 23
2020-09-12 20:00:00 32.8 2 Norte 5 Norte 0 -- -- 19
2020-09-12 19:00:00 35.2 0 Calma 11 Nordeste 0 -- -- 18
2020-09-12 18:00:00 36.8 4 Norte 13 Este 0 -- -- 16
2020-09-12 17:00:00 36.3 3 Sur 17 Este 0 -- -- 18
2020-09-12 16:00:00 36 4 Sudeste 14 Este 0 -- -- 19
2020-09-12 15:00:00 35.6 6 Este 14 Este 0 -- -- 21
2020-09-12 14:00:00 33.5 5 Este 17 Este 0 -- -- 23
2020-09-12 13:00:00 32.7 4 Sudeste 19 Este 0 -- -- 25
2020-09-12 12:00:00 30.1 7 Nordeste 14 Nordeste 0 -- -- 28
2020-09-12 11:00:00 25.1 4 Nordeste 11 Este 0 -- -- 34
2020-09-12 10:00:00 22.2 7 Nordeste 11 Nordeste 0 -- -- 39
2020-09-12 09:00:00 20 6 Norte 12 Nordeste 0 -- -- 43
2020-09-12 08:00:00 19.6 4 Norte 9 Nordeste 0 -- -- 43
2020-09-12 07:00:00 20 0 Calma 8 Nordeste 0 -- -- 41
2020-09-12 06:00:00 20.6 5 Nordeste 8 Nordeste 0 -- -- 39
2020-09-12 05:00:00 21.1 0 Calma 3 Nordeste 0 -- -- 42
2020-09-12 04:00:00 22.1 0 Calma 3 Noroeste 0 -- -- 38
2020-09-12 03:00:00 22.8 0 Calma 4 Noroeste 0 -- -- 37
2020-09-12 02:00:00 23.9 3 Oeste 5 Oeste 0 -- -- 34
2020-09-12 01:00:00 25.1 0 Calma 9 Oeste 0 -- -- 32
2020-09-12 00:00:00 25.8 4 Oeste 10 Noroeste 0 -- -- 31
2020-09-11 23:00:00 26.5 0 Calma 5 Oeste 0 -- -- 29
2020-09-11 22:00:00 27.8 2 Noroeste 4 Oeste 0 -- -- 26
2020-09-11 21:00:00 28.7 0 Calma 4 Sudoeste 0 -- -- 26
2020-09-11 20:00:00 30.3 0 Calma 7 Sur 0 -- -- 25
2020-09-11 19:00:00 32.8 3 Sur 9 Sur 0 -- -- 22
2020-09-11 18:00:00 34.2 2 Sur 13 Noroeste 0 -- -- 19
2020-09-11 17:00:00 34.2 3 Noroeste 10 Sudoeste 0 -- -- 19
2020-09-11 16:00:00 33.4 4 Sudoeste 13 Noroeste 0 -- -- 21
2020-09-11 15:00:00 32.9 3 Oeste 9 Noroeste 0 -- -- 24
2020-09-11 14:00:00 30 3 Oeste 10 Oeste 0 -- -- 29
2020-09-11 13:00:00 29.4 3 Sudoeste 10 Sudoeste 0 -- -- 31
2020-09-11 12:00:00 27.3 2 Sudoeste 9 Este 0 -- -- 34
2020-09-11 11:00:00 23.7 3 Sudeste 7 Sudeste 0 -- -- 39
2020-09-11 10:00:00 20.7 0 Calma 7 Nordeste 0 -- -- 43
2020-09-11 09:00:00 18.5 0 Calma 6 Nordeste 0 -- -- 51
2020-09-11 08:00:00 18.5 0 Calma 4 Norte 0 -- -- 47
2020-09-11 07:00:00 18.8 0 Calma 5 Este 0 -- -- 45
2020-09-11 06:00:00 19.5 0 Calma 4 Oeste 0 -- -- 42
2020-09-11 05:00:00 20.4 0 Calma 5 Nordeste 0 -- -- 41
2020-09-11 04:00:00 21.3 0 Calma 3 Oeste 0 -- -- 39
2020-09-11 03:00:00 22.1 0 Calma 4 Oeste 0 -- -- 37
2020-09-11 02:00:00 22.9 0 Calma 5 Este 0 -- -- 37
2020-09-11 01:00:00 24 0 Calma 8 Nordeste 0 -- -- 35
2020-09-11 00:00:00 24.8 0 Calma 9 Nordeste 0 -- -- 34
2020-09-10 23:00:00 26.3 0 Calma 5 Este 0 -- -- 29
2020-09-10 22:00:00 26.9 3 Este 8 Este 0 -- -- 31
2020-09-10 21:00:00 28.1 0 Calma 2 Sur 0 -- -- 28
2020-09-10 20:00:00 30.3 0 Calma 7 Oeste 0 -- -- 28
2020-09-10 19:00:00 31.8 0 Calma 11 Noroeste 0 -- -- 26
2020-09-10 18:00:00 33.7 2 Sudoeste 12 Oeste -- -- -- 21
2020-09-10 17:00:00 32.7 4 Sudoeste 13 Oeste 0 -- -- 22
2020-09-10 16:00:00 32.1 3 Sur 12 Sudoeste 0 -- -- 23
2020-09-10 15:00:00 31.8 3 Sudoeste 10 Oeste 0 -- -- 27
2020-09-10 14:00:00 28.5 3 Sur 12 Oeste 0 -- -- 34
2020-09-10 13:00:00 27.5 4 Sudoeste 10 Sudoeste 0 -- -- 38
2020-09-10 12:00:00 25.9 3 Oeste 12 Oeste 0 -- -- 44
2020-09-10 11:00:00 22.6 3 Sudoeste 7 Sudoeste 0 -- -- 51
2020-09-10 10:00:00 19.8 0 Calma 8 Este 0 -- -- 50
2020-09-10 09:00:00 18.1 0 Calma 5 Este 0 -- -- 53
2020-09-10 08:00:00 18.1 0 Calma 9 Oeste 0 -- -- 51
2020-09-10 07:00:00 18.6 2 Oeste 5 Oeste 0 -- -- 50
2020-09-10 06:00:00 19.2 0 Calma 3 Oeste 0 -- -- 46
2020-09-10 05:00:00 20 0 Calma 4 Sudoeste 0 -- -- 44
2020-09-10 04:00:00 21 0 Calma 4 Norte 0 -- -- 40
2020-09-10 03:00:00 22.2 0 Calma 9 Nordeste 0 -- -- 36
2020-09-10 02:00:00 23 0 Calma 6 Nordeste 0 -- -- 36
2020-09-10 01:00:00 24.8 4 Nordeste 11 Nordeste 0 -- -- 30
2020-09-10 00:00:00 25.7 4 Nordeste 14 Nordeste 0 -- -- 29
2020-09-09 23:00:00 27 9 Nordeste 15 Nordeste 0 -- -- 28
2020-09-09 22:00:00 26.7 0 Calma 4 Oeste 0 -- -- 35
2020-09-09 21:00:00 27.4 0 Calma 3 Sur 0 -- -- 33
2020-09-09 20:00:00 29.3 2 Sur 9 Noroeste 0 -- -- 32
2020-09-09 19:00:00 30.8 3 Sudoeste 12 Oeste 0 -- -- 30
2020-09-09 18:00:00 32 3 Sudoeste 14 Este 0 -- -- 28
2020-09-09 17:00:00 31.2 4 Sudeste 15 Oeste 0 -- -- 28
2020-09-09 16:00:00 31.2 3 Sur 15 Nordeste 0 -- -- 27
2020-09-09 15:00:00 30.7 3 Sur 11 Este 0 -- -- 32
2020-09-09 14:00:00 28.7 4 Norte 12 Este 0 -- -- 36
2020-09-09 13:00:00 27.3 2 Sur 9 Nordeste 0 -- -- 40
2020-09-09 12:00:00 26.1 4 Este 10 Sudeste -- -- -- 44
2020-09-09 11:00:00 22.8 3 Sudeste 8 Sudeste 0 -- -- 51
2020-09-09 10:00:00 20.8 3 Este 15 Nordeste 0 -- -- 58
2020-09-09 09:00:00 19.6 7 Nordeste 14 Nordeste 0 -- -- 60
2020-09-09 08:00:00 19.3 6 Nordeste 11 Nordeste 0 -- -- 60
2020-09-09 07:00:00 19.7 5 Nordeste 11 Norte 0 -- -- 59
2020-09-09 06:00:00 19.9 4 Nordeste 8 Norte 0 -- -- 58
2020-09-09 05:00:00 20.5 4 Norte 6 Nordeste 0 -- -- 56
2020-09-09 04:00:00 21.1 0 Calma 4 Oeste 0 -- -- 54
2020-09-09 03:00:00 22 0 Calma 4 Este 0 -- -- 51
2020-09-09 02:00:00 23.1 0 Calma 4 Sur 0 -- -- 47
2020-09-09 01:00:00 24.6 0 Calma 6 Sudoeste 0 -- -- 45
2020-09-09 00:00:00 25 2 Sudoeste 12 Sudoeste 0 -- -- 45
2020-09-08 23:00:00 25.1 0 Calma 6 Oeste 0 -- -- 42
2020-09-08 22:00:00 25.9 3 Oeste 9 Oeste 0 -- -- 33
2020-09-08 21:00:00 27.2 0 Calma 3 Este 0 -- -- 29
2020-09-08 20:00:00 28.9 0 Calma 13 Este 0 -- -- 28
2020-09-08 19:00:00 30.8 3 Sudeste 12 Este 0 -- -- 27
2020-09-08 18:00:00 31.7 5 Este 13 Este 0 -- -- 26
2020-09-08 17:00:00 30.6 3 Sudeste 17 Este 0 -- -- 28
2020-09-08 16:00:00 30.6 3 Sur 15 Este 0 -- -- 31
2020-09-08 15:00:00 29.8 3 Sudeste 11 Este 0 -- -- 34
2020-09-08 14:00:00 28.7 4 Este 12 Este 0 -- -- 39
2020-09-08 13:00:00 28 3 Sur 15 Sudeste 0 -- -- 42
2020-09-08 12:00:00 26.8 4 Sudeste 13 Este 0 -- -- 46
2020-09-08 11:00:00 24.6 3 Sudeste 15 Este 0 -- -- 51
2020-09-08 10:00:00 22.4 8 Este 16 Nordeste 0 -- -- 56
2020-09-08 09:00:00 20.6 8 Nordeste 15 Norte 0 -- -- 56
2020-09-08 08:00:00 20.3 8 Nordeste 20 Nordeste 0 -- -- 51
2020-09-08 07:00:00 20.6 11 Nordeste 23 Nordeste 0 -- -- 44
2020-09-08 06:00:00 21.1 12 Nordeste 21 Nordeste 0 -- -- 38
2020-09-08 05:00:00 21.5 10 Nordeste 19 Nordeste 0 -- -- 32
2020-09-08 04:00:00 22.4 11 Nordeste 20 Nordeste 0 -- -- 25
2020-09-08 03:00:00 22.2 9 Nordeste 14 Nordeste 0 -- -- 24
2020-09-08 02:00:00 23.1 7 Nordeste 16 Nordeste 0 -- -- 23
2020-09-08 01:00:00 24.6 8 Nordeste 19 Nordeste 0 -- -- 21
2020-09-08 00:00:00 25.2 7 Nordeste 16 Este 0 -- -- 21
2020-09-07 23:00:00 26.1 6 Nordeste 17 Nordeste 0 -- -- 22
2020-09-07 22:00:00 27.9 10 Nordeste 23 Nordeste 0 -- -- 22
2020-09-07 21:00:00 29.3 9 Nordeste 24 Este 0 -- -- 22
2020-09-07 20:00:00 31.3 12 Nordeste 26 Nordeste 0 -- -- 20
2020-09-07 19:00:00 32.8 15 Nordeste 32 Este 0 -- -- 19
2020-09-07 18:00:00 34.2 6 Norte 13 Nordeste 0 -- -- 23
2020-09-07 17:00:00 34.4 5 Oeste 14 Este 0 -- -- 24
2020-09-07 16:00:00 33.1 4 Oeste 12 Este 0 -- -- 25
2020-09-07 15:00:00 33.4 2 Sur 11 Sudeste 0 -- -- 26
2020-09-07 14:00:00 30.2 3 Sur 11 Sudeste 0 -- -- 34
2020-09-07 13:00:00 29.1 3 Sur 11 Oeste 0 -- -- 40
2020-09-07 12:00:00 27.5 2 Sudoeste 13 Oeste 0 -- -- 46
2020-09-07 11:00:00 24.6 3 Sudoeste 9 Oeste 0 -- -- 53
2020-09-07 10:00:00 22.3 0 Calma 4 Sudeste 0 -- -- 61
2020-09-07 09:00:00 20.9 2 Sudeste 5 Sudeste 0 -- -- 66
2020-09-07 08:00:00 20.9 0 Calma 4 Sudoeste 0 -- -- 64
2020-09-07 07:00:00 22.1 2 Sudoeste 15 Oeste 0 -- -- 61
2020-09-07 06:00:00 22.9 3 Sudoeste 19 Oeste 0 -- -- 58
2020-09-07 05:00:00 23.4 3 Sudoeste 15 Oeste 0 -- -- 56
2020-09-07 04:00:00 24.1 3 Sudoeste 17 Sudoeste 0 -- -- 52
2020-09-07 03:00:00 25.1 5 Sudoeste 16 Oeste 0 -- -- 48
2020-09-07 02:00:00 26.1 4 Sudoeste 22 Oeste 0 -- -- 43
2020-09-07 01:00:00 27.3 5 Sudoeste 19 Sudoeste 0 -- -- 38
2020-09-07 00:00:00 27.1 3 Oeste 10 Oeste 0 -- -- 35
2020-09-06 23:00:00 28.1 3 Oeste 13 Oeste 0 -- -- 31
2020-09-06 22:00:00 28.7 5 Oeste 9 Oeste 0 -- -- 29
2020-09-06 21:00:00 30.6 2 Oeste 6 Sudoeste 0 -- -- 25
2020-09-06 20:00:00 33 3 Sudoeste 11 Oeste 0 -- -- 23
2020-09-06 19:00:00 34.4 2 Sudoeste 9 Oeste 0 -- -- 21
2020-09-06 18:00:00 36 3 Sudoeste 10 Oeste 0 -- -- 19
2020-09-06 17:00:00 34.6 3 Sudoeste 13 Oeste 0 -- -- 23
2020-09-06 16:00:00 34.4 3 Sudoeste 12 Noroeste 0 -- -- 26
2020-09-06 15:00:00 33.7 3 Sur 9 Este 0 -- -- 28
2020-09-06 14:00:00 30.8 3 Sudoeste 9 Este 0 -- -- 33
2020-09-06 13:00:00 30.1 4 Sudeste 12 Sudeste 0 -- -- 35
2020-09-06 12:00:00 27.5 3 Sur 11 Este 0 -- -- 42
2020-09-06 11:00:00 24.1 3 Sudeste 10 Sudeste 0 -- -- 47
2020-09-06 10:00:00 21.9 3 Sudeste 8 Sudeste 0 -- -- 49
2020-09-06 09:00:00 20.4 2 Oeste 4 Sudoeste 0 -- -- 57
2020-09-06 08:00:00 19.7 0 Calma 2 Nordeste 0 -- -- 53
2020-09-06 07:00:00 20.3 0 Calma 3 Oeste 0 -- -- 52
2020-09-06 06:00:00 21 0 Calma 3 Sudoeste 0 -- -- 49
2020-09-06 05:00:00 22.2 0 Calma 4 Noroeste 0 -- -- 46
2020-09-06 04:00:00 23.6 0 Calma 8 Noroeste 0 -- -- 41
2020-09-06 03:00:00 24.6 0 Calma 6 Noroeste 0 -- -- 38
2020-09-06 02:00:00 25.2 0 Calma 10 Oeste 0 -- -- 38
2020-09-06 01:00:00 25.3 2 Oeste 6 Oeste 0 -- -- 36
2020-09-06 00:00:00 26 0 Calma 6 Oeste 0 -- -- 30
2020-09-05 23:00:00 26.7 0 Calma 4 Oeste 0 -- -- 27
2020-09-05 22:00:00 28.1 0 Calma 6 Noroeste 0 -- -- 26
2020-09-05 21:00:00 29.9 2 Oeste 6 Oeste 0 -- -- 22
2020-09-05 20:00:00 32.3 0 Calma 10 Oeste 0 -- -- 22
2020-09-05 19:00:00 34.3 2 Sudoeste 13 Sudoeste 0 -- -- 20
2020-09-05 18:00:00 36.2 2 Sur 9 Este 0 -- -- 16
2020-09-05 17:00:00 35.6 6 Este 13 Nordeste 0 -- -- 18
2020-09-05 16:00:00 34.3 3 Sudoeste 11 Norte 0 -- -- 22
2020-09-05 15:00:00 33.1 2 Sudoeste 11 Este 0 -- -- 27
2020-09-05 14:00:00 30.7 4 Este 9 Sudeste 0 -- -- 32
2020-09-05 13:00:00 29.7 3 Este 12 Sudeste 0 -- -- 38
2020-09-05 12:00:00 27.4 3 Sudeste 10 Este 0 -- -- 43
2020-09-05 11:00:00 23.4 2 Sudeste 8 Este 0 -- -- 48
2020-09-05 10:00:00 21.1 4 Este 9 Este 0 -- -- 53
2020-09-05 09:00:00 19.2 5 Nordeste 10 Este 0 -- -- 51
2020-09-05 08:00:00 18.6 2 Norte 6 Nordeste 0 -- -- 51
2020-09-05 07:00:00 19.3 0 Calma 8 Nordeste 0 -- -- 50
2020-09-05 06:00:00 19.8 0 Calma 2 Norte 0 -- -- 53
2020-09-05 05:00:00 20.4 0 Calma 2 Oeste 0 -- -- 50
2020-09-05 04:00:00 21.7 0 Calma 6 Oeste 0 -- -- 47
2020-09-05 03:00:00 22.4 0 Calma 10 Oeste 0 -- -- 45
2020-09-05 02:00:00 23.5 4 Oeste 10 Oeste 0 -- -- 41
2020-09-05 01:00:00 24.8 3 Sudoeste 11 Sudoeste 0 -- -- 37
2020-09-05 00:00:00 26.1 2 Sur 15 Sudoeste 0 -- -- 34
2020-09-04 23:00:00 27.5 5 Sudoeste 20 Sudoeste 0 -- -- 31
2020-09-04 22:00:00 27.7 4 Oeste 7 Oeste 0 -- -- 23
2020-09-04 21:00:00 29.2 2 Oeste 6 Oeste 0 -- -- 22
2020-09-04 20:00:00 31.5 0 Calma 7 Sudoeste 0 -- -- 20
2020-09-04 19:00:00 34 0 Calma 14 Este 0 -- -- 17
2020-09-04 18:00:00 35.7 4 Nordeste 11 Este -- -- -- 18
2020-09-04 17:00:00 34.3 3 Sudeste 10 Norte 0 -- -- 18
2020-09-04 16:00:00 34 4 Norte 15 Sudeste 0 -- -- 16
2020-09-04 15:00:00 34.2 5 Este 17 Este 0 -- -- 17
2020-09-04 14:00:00 31.8 9 Este 21 Este 0 -- -- 19
2020-09-04 13:00:00 30.9 10 Nordeste 22 Este 0 -- -- 22
2020-09-04 12:00:00 29.1 8 Nordeste 23 Sudeste 0 -- -- 28
2020-09-04 11:00:00 25.4 6 Este 17 Nordeste 0 -- -- 37
2020-09-04 10:00:00 22.8 8 Nordeste 17 Nordeste 0 -- -- 49
2020-09-04 09:00:00 21.3 9 Nordeste 17 Nordeste 0 -- -- 57
2020-09-04 08:00:00 21 10 Nordeste 16 Nordeste 0 -- -- 58
2020-09-04 07:00:00 21.5 8 Nordeste 19 Nordeste 0 -- -- 57
2020-09-04 06:00:00 22 6 Nordeste 12 Nordeste 0 -- -- 52
2020-09-04 05:00:00 22.5 5 Nordeste 14 Nordeste 0 -- -- 53
2020-09-04 04:00:00 23.4 7 Nordeste 15 Nordeste 0 -- -- 51
2020-09-04 03:00:00 23.6 7 Nordeste 14 Nordeste 0 -- -- 49
2020-09-04 02:00:00 23.9 4 Norte 6 Norte 0 -- -- 45
2020-09-04 01:00:00 24.6 0 Calma 7 Este -- -- -- 40
2020-09-04 00:00:00 25.7 2 Noroeste 5 Noroeste 0 -- -- 37
2020-09-03 23:00:00 27 2 Sudoeste 7 Este 0 -- -- 34
2020-09-03 22:00:00 28.1 0 Calma 8 Este 0 -- -- 29
2020-09-03 21:00:00 29.7 0 Calma 9 Este 0 -- -- 26
2020-09-03 20:00:00 31.7 0 Calma 15 Sudeste 0 -- -- 26
2020-09-03 19:00:00 33.7 4 Sudeste 19 Este 0 -- -- 23
2020-09-03 18:00:00 35.6 7 Este 19 Este 0 -- -- 18
2020-09-03 17:00:00 34.3 8 Este 21 Sudeste 0 -- -- 20
2020-09-03 16:00:00 34.3 7 Nordeste 23 Este 0 -- -- 19
2020-09-03 15:00:00 33.5 6 Sudeste 18 Este 0 -- -- 22
2020-09-03 14:00:00 31 3 Nordeste 15 Este 0 -- -- 29
2020-09-03 13:00:00 30.2 4 Sudeste 15 Este 0 -- -- 33
2020-09-03 12:00:00 27.8 4 Sudeste 12 Este 0 -- -- 40
2020-09-03 11:00:00 23.8 3 Nordeste 10 Este 0 -- -- 46
2020-09-03 10:00:00 20.6 0 Calma 9 Nordeste 0 -- -- 54
2020-09-03 09:00:00 19.1 4 Nordeste 10 Nordeste 0 -- -- 53
2020-09-03 08:00:00 18 3 Nordeste 8 Nordeste 0 -- -- 56
2020-09-03 07:00:00 18.5 0 Calma 4 Norte 0 -- -- 46
2020-09-03 06:00:00 18.9 0 Calma 5 Norte 0 -- -- 43
2020-09-03 05:00:00 19.3 0 Calma -- -- 0 -- -- 40
2020-09-03 04:00:00 20.2 0 Calma 3 Sudeste 0 -- -- 37
2020-09-03 03:00:00 21.1 0 Calma 5 Oeste 0 -- -- 35
2020-09-03 02:00:00 22 0 Calma 5 Oeste 0 -- -- 38
2020-09-03 01:00:00 23 0 Calma 6 Sudeste 0 -- -- 33
2020-09-03 00:00:00 24.7 2 Sudoeste 13 Oeste 0 -- -- 28
2020-09-02 23:00:00 25.6 5 Norte 12 Norte 0 -- -- 23
2020-09-02 22:00:00 26.6 2 Noroeste 4 Noroeste 0 -- -- 22
2020-09-02 21:00:00 28.5 2 Oeste 8 Oeste 0 -- -- 21
2020-09-02 20:00:00 30.7 2 Sudoeste 14 Noroeste 0 -- -- 19
2020-09-02 19:00:00 32.3 5 Oeste 13 Oeste 0 -- -- 17
2020-09-02 18:00:00 33.8 3 Sudoeste 12 Nordeste 0 -- -- 16
2020-09-02 17:00:00 32.9 3 Sur 13 Norte 0 -- -- 16
2020-09-02 16:00:00 32.6 4 Sudeste 12 Sudeste 0 -- -- 18
2020-09-02 15:00:00 32.4 3 Nordeste 13 Sudeste 0 -- -- 21
2020-09-02 14:00:00 29.6 3 Sudeste 10 Sudeste 0 -- -- 22
2020-09-02 13:00:00 28.5 2 Sudoeste 9 Oeste 0 -- -- 29
2020-09-02 12:00:00 26.1 4 Este 11 Nordeste 0 -- -- 32
2020-09-02 11:00:00 22.3 3 Nordeste 10 Este 0 -- -- 42
2020-09-02 10:00:00 19.6 4 Este 9 Este 0 -- -- 52
2020-09-02 09:00:00 17.8 4 Nordeste 11 Nordeste 0 -- -- 54
2020-09-02 08:00:00 17.6 4 Nordeste 7 Nordeste 0 -- -- 54
2020-09-02 07:00:00 18.5 0 Calma 5 Oeste 0 -- -- 52
2020-09-02 06:00:00 19.1 0 Calma 7 Sudoeste 0 -- -- 50
2020-09-02 05:00:00 20 0 Calma 4 Sudoeste 0 -- -- 46
2020-09-02 04:00:00 20.6 0 Calma 8 Oeste 0 -- -- 42
2020-09-02 03:00:00 21.2 3 Sudoeste 8 Sudoeste 0 -- -- 39
2020-09-02 02:00:00 21 0 Calma 9 Oeste 0 -- -- 39
2020-09-02 01:00:00 21.3 0 Calma 3 Oeste 0 -- -- 40
2020-09-02 00:00:00 22.4 0 Calma 3 Noroeste 0 -- -- 39
2020-09-01 23:00:00 23.5 0 Calma 2 Sudeste 0 -- -- 37
2020-09-01 22:00:00 24.6 0 Calma 4 Sudoeste 0 -- -- 33
2020-09-01 21:00:00 26.2 2 Sudoeste 9 Sudoeste 0 -- -- 31
2020-09-01 20:00:00 27.6 2 Sudoeste 13 Sudoeste 0 -- -- 31
2020-09-01 19:00:00 28.6 3 Sudoeste 13 Sudoeste 0 -- -- 27
2020-09-01 18:00:00 28.8 3 Sudoeste 12 Sudoeste 0 -- -- 29
2020-09-01 17:00:00 28.3 4 Sudoeste 14 Sudoeste 0 -- -- 29
2020-09-01 16:00:00 27.9 4 Sudoeste 15 Oeste 0 -- -- 30
2020-09-01 15:00:00 25.5 4 Sudoeste 16 Oeste 0 -- -- 35
2020-09-01 14:00:00 24.6 3 Sudoeste 9 Noroeste 0 -- -- 40
2020-09-01 13:00:00 22.4 0 Calma 7 Sudeste 0 -- -- 53
2020-09-01 12:00:00 21.7 2 Sudeste 8 Sudeste 0 -- -- 50
2020-09-01 11:00:00 20.4 0 Calma 4 Este 0 -- -- 48
2020-09-01 10:00:00 18.3 0 Calma 3 Sudoeste 0 -- -- 44
2020-09-01 09:00:00 17.2 0 Calma 6 Nordeste 0 -- -- 38
2020-09-01 08:00:00 16.3 0 Calma 6 Nordeste 0 -- -- 38
2020-09-01 07:00:00 16.7 0 Calma 5 Nordeste 0 -- -- 34
2020-09-01 06:00:00 17 0 Calma 3 Este 0 -- -- 33
2020-09-01 05:00:00 17.8 0 Calma 2 Sudeste 0 -- -- 34
2020-09-01 04:00:00 18.7 0 Calma 4 Sudeste 0 -- -- 37
2020-09-01 03:00:00 19.9 0 Calma 6 Oeste 0 -- -- 34
2020-09-01 02:00:00 21.2 0 Calma 6 Nordeste 0 -- -- 32
2020-09-01 01:00:00 22.3 0 Calma 5 Sudoeste 0 -- -- 31
2020-09-01 00:00:00 23.8 0 Calma 18 Noroeste -- -- -- 21
2020-08-31 23:00:00 24.5 8 Nordeste 16 Nordeste 0 -- -- 20
2020-08-31 22:00:00 25.4 3 Noroeste 4 Oeste 0 -- -- 19
2020-08-31 21:00:00 26.5 0 Calma 5 Sur 0 -- -- 19
2020-08-31 20:00:00 29.1 0 Calma 8 Este 0 -- -- 19
2020-08-31 19:00:00 31.2 2 Sudeste 13 Nordeste 0 -- -- 15
2020-08-31 18:00:00 33.1 5 Norte 17 Este 0 -- -- 16
2020-08-31 17:00:00 32 4 Oeste 18 Sudeste 0 -- -- 16
2020-08-31 16:00:00 31.3 4 Sudeste 14 Este 0 -- -- 17
2020-08-31 15:00:00 31.3 7 Nordeste 16 Nordeste 0 -- -- 17
2020-08-31 14:00:00 29.1 4 Oeste 20 Este 0 -- -- 20
2020-08-31 13:00:00 29.2 5 Nordeste 21 Este 0 -- -- 21
2020-08-31 12:00:00 27.3 8 Este 19 Este 0 -- -- 22
2020-08-31 11:00:00 23.2 6 Este 16 Este 0 -- -- 40
2020-08-31 10:00:00 20.2 6 Este 18 Nordeste 0 -- -- 37
2020-08-31 09:00:00 18.6 10 Nordeste 19 Nordeste 0 -- -- 32
2020-08-31 08:00:00 18.2 5 Nordeste 19 Nordeste 0 -- -- 31
2020-08-31 07:00:00 18.6 10 Nordeste 18 Nordeste 0 -- -- 29
2020-08-31 06:00:00 18.9 11 Nordeste 20 Nordeste 0 -- -- 27
2020-08-31 05:00:00 19.4 11 Nordeste 22 Nordeste 0 -- -- 26
2020-08-31 04:00:00 19.7 11 Nordeste 20 Nordeste 0 -- -- 26
2020-08-31 03:00:00 19.3 7 Nordeste 13 Nordeste 0 -- -- 27
2020-08-31 02:00:00 20.2 6 Nordeste 13 Este 0 -- -- 26
2020-08-31 01:00:00 20.7 6 Este 12 Este 0 -- -- 27
2020-08-31 00:00:00 21.8 5 Este 16 Norte 0 -- -- 25
2020-08-30 23:00:00 23 9 Nordeste 18 Nordeste 0 -- -- 24
2020-08-30 22:00:00 24.2 8 Nordeste 20 Nordeste 0 -- -- 22
2020-08-30 21:00:00 25.8 10 Nordeste 23 Nordeste 0 -- -- 20
2020-08-30 20:00:00 27.5 7 Nordeste 16 Noroeste 0 -- -- 19
2020-08-30 19:00:00 29.8 7 Nordeste 28 Nordeste 0 -- -- 17
2020-08-30 18:00:00 31 6 Este 22 Este 0 -- -- 17
2020-08-30 17:00:00 30.1 9 Este 19 Este 0 -- -- 17
2020-08-30 16:00:00 29.5 3 Nordeste 15 Noroeste 0 -- -- 18
2020-08-30 15:00:00 29 4 Nordeste 14 Norte 0 -- -- 17
2020-08-30 14:00:00 27.8 6 Este 19 Nordeste 0 -- -- 19
2020-08-30 13:00:00 27.5 9 Este 22 Este 0 -- -- 24
2020-08-30 12:00:00 25.3 9 Este 22 Este 0 -- -- 26
2020-08-30 11:00:00 21 9 Este 23 Este 0 -- -- 37
2020-08-30 10:00:00 18.3 8 Nordeste 19 Este 0 -- -- 41
2020-08-30 09:00:00 17.2 6 Nordeste 15 Este 0 -- -- 42
2020-08-30 08:00:00 17.1 8 Nordeste 20 Nordeste 0 -- -- 40
2020-08-30 07:00:00 17.1 5 Nordeste 17 Este 0 -- -- 40
2020-08-30 06:00:00 17.4 5 Este 11 Este 0 -- -- 39
2020-08-30 05:00:00 18.3 2 Sudeste 23 Norte 0 -- -- 35
2020-08-30 04:00:00 19.5 11 Nordeste 19 Nordeste 0 -- -- 33
2020-08-30 03:00:00 19.8 9 Nordeste 19 Nordeste 0 -- -- 30
2020-08-30 02:00:00 20.9 6 Este 20 Norte 0 -- -- 27
2020-08-30 01:00:00 22.1 9 Nordeste 19 Norte 0 -- -- 24
2020-08-30 00:00:00 22.7 9 Norte 19 Nordeste 0 -- -- 23
2020-08-29 23:00:00 23.2 10 Norte 19 Norte 0 -- -- 23
2020-08-29 22:00:00 24.1 9 Norte 17 Norte 0 -- -- 22
2020-08-29 21:00:00 25.3 6 Norte 22 Nordeste 0 -- -- 19
2020-08-29 20:00:00 27 9 Norte 29 Norte 0 -- -- 19
2020-08-29 19:00:00 28.2 6 Norte 26 Oeste 0 -- -- 18
2020-08-29 18:00:00 29.2 8 Norte 22 Noroeste 0 -- -- 21
2020-08-29 17:00:00 27.7 2 Norte 17 Norte 0 -- -- 25
2020-08-29 16:00:00 27.7 4 Norte 12 Noroeste 0 -- -- 27
2020-08-29 15:00:00 27.7 3 Sudoeste 14 Sudoeste 0 -- -- 28
2020-08-29 14:00:00 25.8 4 Sudoeste 14 Sudoeste 0 -- -- 32
2020-08-29 13:00:00 25.5 4 Sudoeste 14 Sudoeste 0 -- -- 34
2020-08-29 12:00:00 23.5 4 Sudoeste 13 Oeste 0 -- -- 38
2020-08-29 11:00:00 20.8 3 Sudoeste 13 Sudoeste 0 -- -- 44
2020-08-29 10:00:00 19.2 3 Sudoeste 12 Sudoeste 0 -- -- 48
2020-08-29 09:00:00 17.9 4 Sudoeste 14 Sudoeste 0 -- -- 48
2020-08-29 08:00:00 17.8 2 Sudoeste 13 Sudoeste 0 -- -- 46
2020-08-29 07:00:00 18.2 2 Sudoeste 6 Oeste 0 -- -- 43
2020-08-29 06:00:00 19 3 Oeste 9 Oeste 0 -- -- 37
2020-08-29 05:00:00 20.4 4 Oeste 9 Oeste 0 -- -- 33
2020-08-29 04:00:00 21.6 3 Oeste 9 Oeste 0 -- -- 29
2020-08-29 03:00:00 23.1 3 Sudoeste 10 Sudoeste 0 -- -- 26
2020-08-29 02:00:00 25 3 Sudoeste 19 Oeste 0 -- -- 21
2020-08-29 01:00:00 26.4 12 Oeste 23 Oeste 0 -- -- 19
2020-08-29 00:00:00 26.5 5 Oeste 12 Oeste 0 -- -- 27
2020-08-28 23:00:00 27.9 0 Calma 12 Oeste 0 -- -- 28
2020-08-28 22:00:00 29.7 3 Noroeste 15 Oeste 0 -- -- 28
2020-08-28 21:00:00 31.4 4 Sudoeste 21 Noroeste 0 -- -- 29
2020-08-28 20:00:00 32.8 6 Oeste 34 Oeste 0 -- -- 26
2020-08-28 19:00:00 34 8 Sudoeste 28 Sudoeste 0 -- -- 25
2020-08-28 18:00:00 34.7 7 Sudoeste 29 Oeste 0 -- -- 24
2020-08-28 17:00:00 33.9 7 Sudoeste 24 Sudoeste 0 -- -- 29
2020-08-28 16:00:00 34.4 6 Sudoeste 30 Sudoeste 0 -- -- 30
2020-08-28 15:00:00 34.3 7 Sudoeste 24 Oeste 0 -- -- 32
2020-08-28 14:00:00 32 7 Sudoeste 24 Sudoeste 0 -- -- 36
2020-08-28 13:00:00 30.5 7 Sudoeste 20 Sudoeste 0 -- -- 39
2020-08-28 12:00:00 28.9 4 Sudoeste 22 Oeste 0 -- -- 42
2020-08-28 11:00:00 26.4 4 Sudoeste 13 Oeste 0 -- -- 46
2020-08-28 10:00:00 25 4 Sudoeste 17 Oeste 0 -- -- 48
2020-08-28 09:00:00 23.8 3 Sudoeste 11 Sudoeste 0 -- -- 50
2020-08-28 08:00:00 24.1 2 Sudoeste 10 Sudoeste 0 -- -- 48
2020-08-28 07:00:00 24.7 3 Sudoeste 12 Oeste 0 -- -- 45
2020-08-28 06:00:00 25.3 3 Oeste 12 Oeste 0 -- -- 43
2020-08-28 05:00:00 25.4 3 Sudoeste 10 Oeste 0 -- -- 43
2020-08-28 04:00:00 25.3 0 Calma 5 Oeste 0 -- -- 43
2020-08-28 03:00:00 26.1 0 Calma 8 Oeste 0 -- -- 39
2020-08-28 02:00:00 26.7 2 Oeste 8 Noroeste 0 -- -- 32
2020-08-28 01:00:00 28 4 Oeste 8 Oeste 0 -- -- 28
2020-08-28 00:00:00 29 2 Oeste 6 Oeste 0 -- -- 25
2020-08-27 23:00:00 29.6 2 Sudoeste 9 Oeste 0 -- -- 24
2020-08-27 22:00:00 31.7 2 Sudoeste 9 Oeste 0 -- -- 20
2020-08-27 21:00:00 34.5 3 Oeste 17 Oeste 0 -- -- 18
2020-08-27 20:00:00 36.5 5 Oeste 22 Oeste 0 -- -- 15
2020-08-27 19:00:00 37.7 8 Oeste 21 Oeste 0 -- -- 16
2020-08-27 18:00:00 38.9 5 Sudoeste 17 Sudoeste 0 -- -- 16
2020-08-27 17:00:00 38.6 4 Sudoeste 16 Sudoeste 0 -- -- 18
2020-08-27 16:00:00 37.9 4 Sudoeste 18 Oeste 0 -- -- 17
2020-08-27 15:00:00 37.5 5 Oeste 12 Sur -- -- -- 20
2020-08-27 14:00:00 35.5 4 Sudoeste 14 Noroeste 0 -- -- 24
2020-08-27 13:00:00 34.1 4 Sudoeste 11 Sudoeste 0 -- -- 26
2020-08-27 12:00:00 31.5 3 Sudoeste 10 Oeste 0 -- -- 32
2020-08-27 11:00:00 27.1 0 Calma 5 Este 0 -- -- 38
2020-08-27 10:00:00 24.2 0 Calma 6 Este 0 -- -- 45
2020-08-27 09:00:00 22.2 4 Nordeste 7 Nordeste 0 -- -- 46
2020-08-27 08:00:00 22.2 0 Calma 3 Nordeste 0 -- -- 46
2020-08-27 07:00:00 22.9 3 Nordeste 7 Nordeste 0 -- -- 42
2020-08-27 06:00:00 23.7 0 Calma 3 Sudeste 0 -- -- 43
2020-08-27 05:00:00 25.1 0 Calma 4 Noroeste 0 -- -- 41
2020-08-27 04:00:00 26 0 Calma 3 Sudoeste 0 -- -- 37
2020-08-27 03:00:00 26.8 0 Calma 4 Oeste 0 -- -- 34
2020-08-27 02:00:00 27.4 0 Calma 4 Oeste 0 -- -- 32
2020-08-27 01:00:00 28.5 2 Oeste 6 Este 0 -- -- 28
2020-08-27 00:00:00 29.1 0 Calma 8 Oeste 0 -- -- 27
2020-08-26 23:00:00 29.7 2 Oeste 6 Oeste 0 -- -- 26
2020-08-26 22:00:00 31.5 2 Oeste 7 Oeste 0 -- -- 23
2020-08-26 21:00:00 33.2 2 Sudoeste 7 Sudoeste 0 -- -- 19
2020-08-26 20:00:00 36.1 3 Sudoeste 11 Sudoeste 0 -- -- 20
2020-08-26 19:00:00 37.6 4 Sudoeste 14 Oeste 0 -- -- 17
2020-08-26 18:00:00 38.6 4 Sudoeste 12 Sudoeste 0 -- -- 18
2020-08-26 17:00:00 38.4 5 Sudoeste 13 Oeste 0 -- -- 21
2020-08-26 16:00:00 37.8 4 Sudoeste 14 Oeste 0 -- -- 22
2020-08-26 15:00:00 37.3 3 Sur 11 Noroeste 0 -- -- 24
2020-08-26 14:00:00 34.9 3 Sudoeste 11 Sudoeste 0 -- -- 30
2020-08-26 13:00:00 33.1 3 Oeste 8 Oeste 0 -- -- 34
2020-08-26 12:00:00 30.2 2 Sur 8 Sudeste 0 -- -- 41
2020-08-26 11:00:00 26.5 2 Sur 6 Sudeste 0 -- -- 52
2020-08-26 10:00:00 24.2 2 Sudeste 6 Este 0 -- -- 61
2020-08-26 09:00:00 23.1 3 Nordeste 7 Nordeste -- -- -- 51
2020-08-26 08:00:00 22.9 2 Sudeste 6 Este 0 -- -- 55
2020-08-26 07:00:00 23.7 0 Calma 2 Sudeste 0 -- -- 53
2020-08-26 06:00:00 24.6 0 Calma 8 Oeste 0 -- -- 53
2020-08-26 05:00:00 24.7 2 Sudoeste 6 Sudoeste 0 -- -- 47
2020-08-26 04:00:00 24.9 2 Oeste 5 Noroeste 0 -- -- 40
2020-08-26 03:00:00 25.7 0 Calma 4 Oeste 0 -- -- 36
2020-08-26 02:00:00 26.8 0 Calma 3 Oeste 0 -- -- 33
2020-08-26 01:00:00 27.8 0 Calma 5 Oeste 0 -- -- 31
2020-08-26 00:00:00 28.7 3 Noroeste 5 Oeste 0 -- -- 28
2020-08-25 23:00:00 29.6 0 Calma 6 Oeste 0 -- -- 27
2020-08-25 22:00:00 30.7 2 Oeste 7 Noroeste 0 -- -- 26
2020-08-25 21:00:00 33.2 2 Oeste 12 Noroeste 0 -- -- 21
2020-08-25 20:00:00 35.9 2 Sudoeste 13 Oeste 0 -- -- 16
2020-08-25 19:00:00 36.9 3 Sudoeste 16 Oeste 0 -- -- 16
2020-08-25 18:00:00 38.1 4 Sudoeste 13 Oeste 0 -- -- 19
2020-08-25 17:00:00 37.4 4 Sudoeste 19 Oeste 0 -- -- 22
2020-08-25 16:00:00 37.1 4 Sudoeste 17 Oeste 0 -- -- 20
2020-08-25 15:00:00 36.1 4 Sudoeste 11 Oeste 0 -- -- 25
2020-08-25 14:00:00 34 5 Este 11 Este 0 -- -- 36
2020-08-25 13:00:00 32.3 5 Este 10 Este 0 -- -- 42
2020-08-25 12:00:00 29.5 3 Este 8 Sudeste 0 -- -- 47
2020-08-25 11:00:00 26 2 Sur 9 Este 0 -- -- 58
2020-08-25 10:00:00 24 0 Calma 8 Nordeste 0 -- -- 64
2020-08-25 09:00:00 23.1 3 Este 6 Nordeste 0 -- -- 60
2020-08-25 08:00:00 23.1 0 Calma 4 Noroeste 0 -- -- 67
2020-08-25 07:00:00 23.9 2 Sudoeste 9 Oeste 0 -- -- 64
2020-08-25 06:00:00 24.5 4 Oeste 9 Noroeste 0 -- -- 61
2020-08-25 05:00:00 25.3 0 Calma 14 Oeste 0 -- -- 58
2020-08-25 04:00:00 26.1 4 Oeste 11 Sudoeste 0 -- -- 53
2020-08-25 03:00:00 26.6 3 Sudoeste 14 Sudoeste 0 -- -- 49
2020-08-25 02:00:00 26 3 Oeste 7 Oeste 0 -- -- 36
2020-08-25 01:00:00 26.6 2 Oeste 4 Oeste 0 -- -- 34
2020-08-25 00:00:00 27.8 0 Calma 4 Oeste 0 -- -- 30
2020-08-24 23:00:00 28.7 2 Oeste 7 Oeste 0 -- -- 29
2020-08-24 22:00:00 30.4 3 Oeste 7 Oeste 0 -- -- 26
2020-08-24 21:00:00 32.7 2 Sudoeste 13 Oeste 0 -- -- 24
2020-08-24 20:00:00 34.9 3 Sudoeste 11 Noroeste 0 -- -- 20
2020-08-24 19:00:00 36.1 3 Sudoeste 12 Sudoeste 0 -- -- 16
2020-08-24 18:00:00 37.7 4 Sudoeste 14 Oeste 0 -- -- 15
2020-08-24 17:00:00 37.3 4 Sudoeste 12 Oeste 0 -- -- 13
2020-08-24 16:00:00 36.8 4 Sudoeste 12 Noroeste 0 -- -- 16
2020-08-24 15:00:00 35.6 5 Oeste 16 Oeste 0 -- -- 21
2020-08-24 14:00:00 33.1 4 Oeste 13 Oeste 0 -- -- 28
2020-08-24 13:00:00 31.5 4 Noroeste 12 Oeste 0 -- -- 30
2020-08-24 12:00:00 29.4 3 Sudoeste 10 Oeste 0 -- -- 35
2020-08-24 11:00:00 25.7 2 Noroeste 8 Nordeste 0 -- -- 36
2020-08-24 10:00:00 22.7 4 Este 7 Nordeste 0 -- -- 30
2020-08-24 09:00:00 20.6 4 Nordeste 8 Nordeste 0 -- -- 30
2020-08-24 08:00:00 19.6 0 Calma 6 Nordeste 0 -- -- 30
2020-08-24 07:00:00 20.2 0 Calma 3 Sudeste 0 -- -- 33
2020-08-24 06:00:00 21.3 0 Calma 3 Sudeste 0 -- -- 30
2020-08-24 05:00:00 22.4 2 Oeste 8 Oeste 0 -- -- 28
2020-08-24 04:00:00 23.1 2 Oeste 8 Noroeste 0 -- -- 25
2020-08-24 03:00:00 24.1 0 Calma 5 Oeste 0 -- -- 22
2020-08-24 02:00:00 25.2 0 Calma 2 Este 0 -- -- 19
2020-08-24 01:00:00 26 0 Calma 5 Nordeste 0 -- -- 23
2020-08-24 00:00:00 27.5 0 Calma 7 Oeste 0 -- -- 20
2020-08-23 23:00:00 28.9 3 Oeste 8 Oeste 0 -- -- 17
2020-08-23 22:00:00 30.4 2 Oeste 6 Sudoeste 0 -- -- 18
2020-08-23 21:00:00 32.8 2 Sudoeste 14 Oeste 0 -- -- 15
2020-08-23 20:00:00 35.7 5 Sudoeste 16 Oeste 0 -- -- 11
2020-08-23 19:00:00 36.7 4 Sudoeste 16 Sudoeste 0 -- -- 12
2020-08-23 18:00:00 38.4 5 Sudoeste 18 Oeste 0 -- -- 11
2020-08-23 17:00:00 38.1 5 Sudoeste 25 Noroeste 0 -- -- 11
2020-08-23 16:00:00 38 8 Oeste 21 Noroeste 0 -- -- 14
2020-08-23 15:00:00 37.2 5 Oeste 16 Oeste 0 -- -- 16
2020-08-23 14:00:00 35.6 3 Sudoeste 14 Sudoeste 0 -- -- 19
2020-08-23 13:00:00 34.5 2 Sudeste 9 Este 0 -- -- 20
2020-08-23 12:00:00 31 2 Sudoeste 4 Oeste -- -- -- 20
2020-08-23 11:00:00 26.9 3 Oeste 5 Oeste 0 -- -- 29
2020-08-23 10:00:00 24.1 0 Calma 4 Sudeste 0 -- -- 37
2020-08-23 09:00:00 22.4 0 Calma 10 Nordeste 0 -- -- 41
2020-08-23 08:00:00 21.7 2 Norte 8 Nordeste 0 -- -- 37
2020-08-23 07:00:00 22.3 3 Norte 6 Norte 0 -- -- 31
2020-08-23 06:00:00 23 0 Calma 2 Noroeste 0 -- -- 31
2020-08-23 05:00:00 23.7 0 Calma 3 Sudeste 0 -- -- 30
2020-08-23 04:00:00 24.8 0 Calma 4 Oeste 0 -- -- 26
2020-08-23 03:00:00 26 2 Sudoeste 8 Noroeste 0 -- -- 24
2020-08-23 02:00:00 26.9 0 Calma 9 Norte 0 -- -- 25
2020-08-23 01:00:00 27.9 0 Calma 6 Nordeste 0 -- -- 28
2020-08-23 00:00:00 29.2 0 Calma 9 Norte 0 -- -- 29
2020-08-22 23:00:00 30.4 4 Norte 9 Norte 0 -- -- 28
2020-08-22 22:00:00 31.5 2 Oeste 5 Noroeste 0 -- -- 29
2020-08-22 21:00:00 33.7 0 Calma 10 Sudoeste 0 -- -- 27
2020-08-22 20:00:00 35.5 3 Sudoeste 13 Sudoeste 0 -- -- 24
2020-08-22 19:00:00 36.1 4 Sudoeste 18 Oeste 0 -- -- 24
2020-08-22 18:00:00 37.4 4 Sudoeste 15 Oeste 0 -- -- 23
2020-08-22 17:00:00 36.7 5 Sudoeste 15 Noroeste 0 -- -- 24
2020-08-22 16:00:00 36.5 4 Oeste 14 Oeste 0 -- -- 25
2020-08-22 15:00:00 35.5 3 Sur 13 Este 0 -- -- 29
2020-08-22 14:00:00 33.6 3 Este 10 Este 0 -- -- 31
2020-08-22 13:00:00 32.3 4 Este 11 Este 0 -- -- 34
2020-08-22 12:00:00 29.5 3 Sur 8 Este 0 -- -- 38
2020-08-22 11:00:00 25.6 0 Calma 7 Este 0 -- -- 42
2020-08-22 10:00:00 23.3 2 Este 5 Nordeste 0 -- -- 47
2020-08-22 09:00:00 21 0 Calma 2 Nordeste 0 -- -- 50
2020-08-22 08:00:00 20.6 0 Calma 5 Nordeste 0 -- -- 46
2020-08-22 07:00:00 21.6 0 Calma 3 Sudoeste 0 -- -- 49
2020-08-22 06:00:00 22.5 0 Calma 4 Oeste 0 -- -- 46
2020-08-22 05:00:00 22.9 0 Calma 2 Sur 0 -- -- 45
2020-08-22 04:00:00 23.7 0 Calma 6 Oeste 0 -- -- 39
2020-08-22 03:00:00 24.8 2 Oeste 6 Sudoeste 0 -- -- 33
2020-08-22 02:00:00 25.6 0 Calma 5 Sudoeste 0 -- -- 31
2020-08-22 01:00:00 25.9 0 Calma 4 Oeste 0 -- -- 28
2020-08-22 00:00:00 27.2 0 Calma 6 Este 0 -- -- 24
2020-08-21 23:00:00 28.6 2 Oeste 9 Oeste 0 -- -- 22
2020-08-21 22:00:00 29.7 2 Oeste 6 Sudoeste 0 -- -- 19
2020-08-21 21:00:00 32.7 2 Sudoeste 21 Sudoeste 0 -- -- 17
2020-08-21 20:00:00 34.7 3 Sudoeste 19 Sudoeste 0 -- -- 15
2020-08-21 19:00:00 35.6 5 Sudoeste 23 Noroeste -- -- -- 14
2020-08-21 18:00:00 36.9 7 Oeste 21 Noroeste 0 -- -- 12
2020-08-21 17:00:00 36.5 5 Sudoeste 22 Sudoeste 0 -- -- 16
2020-08-21 16:00:00 35.7 5 Sudoeste 18 Sudoeste 0 -- -- 15
2020-08-21 15:00:00 34.7 5 Sudoeste 17 Sudoeste 0 -- -- 16
2020-08-21 14:00:00 32.9 4 Sudoeste 12 Sudoeste 0 -- -- 20
2020-08-21 13:00:00 31.2 3 Sudoeste 9 Noroeste 0 -- -- 23
2020-08-21 12:00:00 28.2 4 Sudoeste 11 Oeste 0 -- -- 33
2020-08-21 11:00:00 24.5 3 Sur 8 Sudeste 0 -- -- 41
2020-08-21 10:00:00 21.8 0 Calma 5 Este 0 -- -- 36
2020-08-21 09:00:00 19.6 0 Calma 3 Oeste 0 -- -- 38
2020-08-21 08:00:00 19 0 Calma 2 Sudeste 0 -- -- 36
2020-08-21 07:00:00 20.1 0 Calma 5 Este 0 -- -- 34
2020-08-21 06:00:00 21.7 0 Calma 7 Noroeste 0 -- -- 31
2020-08-21 05:00:00 23.1 3 Oeste 11 Oeste 0 -- -- 27
2020-08-21 04:00:00 23.7 3 Sudoeste 12 Sudoeste 0 -- -- 25
2020-08-21 03:00:00 24.8 2 Sudoeste 13 Noroeste 0 -- -- 23
2020-08-21 02:00:00 25.6 3 Oeste 8 Sudoeste 0 -- -- 21
2020-08-21 01:00:00 27 0 Calma 9 Sudoeste 0 -- -- 19
2020-08-21 00:00:00 28.7 3 Sudoeste 14 Sudoeste 0 -- -- 16
2020-08-20 23:00:00 29.4 2 Sudoeste 9 Sudoeste 0 -- -- 19
2020-08-20 22:00:00 31.9 4 Sudoeste 14 Oeste 0 -- -- 17
2020-08-20 21:00:00 33.5 4 Sudoeste 17 Oeste -- -- -- 17
2020-08-20 20:00:00 35.3 6 Oeste 27 Noroeste 0 -- -- 18
2020-08-20 19:00:00 36.4 6 Oeste 22 Oeste 0 -- -- 17
2020-08-20 18:00:00 37.6 4 Sudoeste 24 Oeste 0 -- -- 17
2020-08-20 17:00:00 37.5 6 Oeste 23 Noroeste 0 -- -- 17
2020-08-20 16:00:00 36.9 5 Sudoeste 18 Oeste 0 -- -- 19
2020-08-20 15:00:00 36.6 4 Sudoeste 18 Oeste 0 -- -- 20
2020-08-20 14:00:00 34.6 2 Sur 8 Este 0 -- -- 22
2020-08-20 13:00:00 32.4 3 Nordeste 10 Este 0 -- -- 23
2020-08-20 12:00:00 29.4 0 Calma 6 Noroeste 0 -- -- 25
2020-08-20 11:00:00 25.5 2 Sudeste 6 Nordeste 0 -- -- 31
2020-08-20 10:00:00 23 3 Nordeste 8 Este 0 -- -- 36
2020-08-20 09:00:00 21.3 4 Este 10 Este 0 -- -- 45
2020-08-20 08:00:00 20.8 0 Calma 4 Este 0 -- -- 42
2020-08-20 07:00:00 21.9 0 Calma 2 Oeste 0 -- -- 36
2020-08-20 06:00:00 23.3 0 Calma 13 Oeste 0 -- -- 32
2020-08-20 05:00:00 23.6 3 Sudoeste 12 Oeste 0 -- -- 34
2020-08-20 04:00:00 25.1 0 Calma 10 Oeste 0 -- -- 32
2020-08-20 03:00:00 25.7 0 Calma 7 Oeste 0 -- -- 38
2020-08-20 02:00:00 27.2 3 Oeste 12 Sudoeste 0 -- -- 36
2020-08-20 01:00:00 28.1 0 Calma 11 Oeste 0 -- -- 35
2020-08-20 00:00:00 28.5 2 Sudoeste 7 Oeste 0 -- -- 32
2020-08-19 23:00:00 29.4 0 Calma 8 Oeste 0 -- -- 30
2020-08-19 22:00:00 31.6 5 Oeste 11 Sur 0 -- -- 27
2020-08-19 21:00:00 33.7 3 Sudoeste 21 Oeste 0 -- -- 25
2020-08-19 20:00:00 35.5 5 Sudoeste 20 Oeste 0 -- -- 23
2020-08-19 19:00:00 36.3 9 Oeste 23 Oeste 0 -- -- 21
2020-08-19 18:00:00 37.7 5 Oeste 22 Oeste 0 -- -- 20
2020-08-19 17:00:00 37.4 5 Sudoeste 19 Oeste 0 -- -- 20
2020-08-19 16:00:00 37.3 7 Oeste 21 Noroeste 0 -- -- 19
2020-08-19 15:00:00 36.4 4 Sudoeste 12 Sudoeste 0 -- -- 21
2020-08-19 14:00:00 35.2 3 Sur 10 Sur 0 -- -- 21
2020-08-19 13:00:00 33.6 3 Oeste 8 Sudeste 0 -- -- 25
2020-08-19 12:00:00 30.7 3 Noroeste 9 Este 0 -- -- 33
2020-08-19 11:00:00 27.3 3 Sur 11 Este 0 -- -- 42
2020-08-19 10:00:00 24.7 4 Nordeste 9 Nordeste 0 -- -- 46
2020-08-19 09:00:00 22.3 2 Nordeste 6 Este 0 -- -- 50
2020-08-19 08:00:00 21.6 2 Norte 6 Nordeste 0 -- -- 51
2020-08-19 07:00:00 22 4 Nordeste 6 Nordeste 0 -- -- 48
2020-08-19 06:00:00 22.4 0 Calma 3 Norte 0 -- -- 50
2020-08-19 05:00:00 23.4 0 Calma 3 Sudeste 0 -- -- 47
2020-08-19 04:00:00 24.4 0 Calma 4 Este 0 -- -- 44
2020-08-19 03:00:00 25.6 2 Norte 4 Norte 0 -- -- 39
2020-08-19 02:00:00 26.2 0 Calma 4 Este 0 -- -- 39
2020-08-19 01:00:00 27.8 0 Calma 12 Norte 0 -- -- 36
2020-08-19 00:00:00 28.8 4 Noroeste 14 Norte 0 -- -- 34